sensor_id;sensor_type;location;lat;lon;timestamp;pressure;altitude;pressure_sealevel;temperature;humidity
29239;BME280;16267;48.194;11.546;2023-02-04T00:01:51;96856.41;;;4.91;100.00
29239;BME280;16267;48.194;11.546;2023-02-04T00:04:17;96862.22;;;4.97;100.00
29239;BME280;16267;48.194;11.546;2023-02-04T00:06:42;96864.22;;;5.00;100.00
29239;BME280;16267;48.194;11.546;2023-02-04T00:09:08;96873.16;;;5.07;100.00
29239;BME280;16267;48.194;11.546;2023-02-04T00:11:34;96869.88;;;5.14;100.00
29239;BME280;16267;48.194;11.546;2023-02-04T00:14:00;96874.44;;;5.13;100.00
29239;BME280;16267;48.194;11.546;2023-02-04T00:16:25;96883.38;;;5.21;100.00
29239;BME280;16267;48.194;11.546;2023-02-04T00:18:51;96887.50;;;5.19;100.00
29239;BME280;16267;48.194;11.546;2023-02-04T00:21:17;96882.66;;;5.08;100.00
29239;BME280;16267;48.194;11.546;2023-02-04T00:23:43;96884.66;;;5.11;100.00
29239;BME280;16267;48.194;11.546;2023-02-04T00:26:08;96879.06;;;5.01;100.00
29239;BME280;16267;48.194;11.546;2023-02-04T00:28:34;96876.91;;;4.90;100.00
29239;BME280;16267;48.194;11.546;2023-02-04T00:31:00;96874.09;;;4.99;100.00
29239;BME280;16267;48.194;11.546;2023-02-04T00:33:26;96863.84;;;5.01;100.00
29239;BME280;16267;48.194;11.546;2023-02-04T00:35:51;96884.38;;;5.01;100.00
29239;BME280;16267;48.194;11.546;2023-02-04T00:38:17;96889.13;;;5.07;100.00
29239;BME280;16267;48.194;11.546;2023-02-04T00:40:43;96897.63;;;5.13;100.00
29239;BME280;16267;48.194;11.546;2023-02-04T00:43:09;96893.00;;;5.10;100.00
29239;BME280;16267;48.194;11.546;2023-02-04T00:45:34;96893.31;;;5.08;100.00
29239;BME280;16267;48.194;11.546;2023-02-04T00:48:00;96894.28;;;5.16;100.00
29239;BME280;16267;48.194;11.546;2023-02-04T00:50:27;96891.84;;;5.11;100.00
29239;BME280;16267;48.194;11.546;2023-02-04T00:52:53;96895.66;;;5.10;100.00
29239;BME280;16267;48.194;11.546;2023-02-04T00:55:18;96911.84;;;5.05;100.00
29239;BME280;16267;48.194;11.546;2023-02-04T00:57:45;96909.13;;;5.17;100.00
29239;BME280;16267;48.194;11.546;2023-02-04T01:00:15;96922.09;;;5.19;100.00
29239;BME280;16267;48.194;11.546;2023-02-04T01:02:42;96911.44;;;5.19;100.00
29239;BME280;16267;48.194;11.546;2023-02-04T01:05:08;96922.34;;;5.13;100.00
29239;BME280;16267;48.194;11.546;2023-02-04T01:07:35;96911.50;;;5.06;100.00
29239;BME280;16267;48.194;11.546;2023-02-04T01:10:02;96922.34;;;5.13;100.00
29239;BME280;16267;48.194;11.546;2023-02-04T01:12:27;96926.91;;;5.13;100.00
29239;BME280;16267;48.194;11.546;2023-02-04T01:14:54;96918.31;;;5.20;100.00
29239;BME280;16267;48.194;11.546;2023-02-04T01:17:19;96921.13;;;5.11;100.00
29239;BME280;16267;48.194;11.546;2023-02-04T01:19:46;96921.69;;;5.04;100.00
29239;BME280;16267;48.194;11.546;2023-02-04T01:22:12;96916.06;;;5.06;100.00
29239;BME280;16267;48.194;11.546;2023-02-04T01:24:38;96925.44;;;5.16;100.00
29239;BME280;16267;48.194;11.546;2023-02-04T01:27:04;96935.47;;;5.22;100.00
29239;BME280;16267;48.194;11.546;2023-02-04T01:29:30;96931.09;;;5.14;100.00
29239;BME280;16267;48.194;11.546;2023-02-04T01:31:56;96935.66;;;5.13;100.00
29239;BME280;16267;48.194;11.546;2023-02-04T01:34:22;96933.44;;;5.16;100.00
29239;BME280;16267;48.194;11.546;2023-02-04T01:36:50;96925.97;;;5.21;100.00
29239;BME280;16267;48.194;11.546;2023-02-04T01:39:16;96926.97;;;5.17;100.00
29239;BME280;16267;48.194;11.546;2023-02-04T01:41:42;96941.50;;;5.19;100.00
29239;BME280;16267;48.194;11.546;2023-02-04T01:44:08;96951.25;;;5.15;100.00
29239;BME280;16267;48.194;11.546;2023-02-04T01:46:34;96949.13;;;5.21;100.00
29239;BME280;16267;48.194;11.546;2023-02-04T01:49:04;96963.75;;;5.27;100.00
29239;BME280;16267;48.194;11.546;2023-02-04T01:51:30;96959.28;;;5.31;100.00
29239;BME280;16267;48.194;11.546;2023-02-04T01:53:58;96954.03;;;5.34;100.00
29239;BME280;16267;48.194;11.546;2023-02-04T01:56:26;96963.59;;;5.35;100.00
29239;BME280;16267;48.194;11.546;2023-02-04T01:58:54;96965.56;;;5.39;100.00
29239;BME280;16267;48.194;11.546;2023-02-04T02:01:47;96970.00;;;5.34;100.00
29239;BME280;16267;48.194;11.546;2023-02-04T02:04:17;96966.56;;;5.34;100.00
29239;BME280;16267;48.194;11.546;2023-02-04T02:06:52;96962.38;;;5.33;100.00
29239;BME280;16267;48.194;11.546;2023-02-04T02:09:20;96966.56;;;5.34;100.00
29239;BME280;16267;48.194;11.546;2023-02-04T02:11:46;96972.09;;;5.41;100.00
29239;BME280;16267;48.194;11.546;2023-02-04T02:14:12;96974.06;;;5.44;100.00
29239;BME280;16267;48.194;11.546;2023-02-04T02:16:38;96971.41;;;5.44;100.00
29239;BME280;16267;48.194;11.546;2023-02-04T02:19:05;96970.66;;;5.44;100.00
29239;BME280;16267;48.194;11.546;2023-02-04T02:22:01;96975.59;;;5.45;100.00
29239;BME280;16267;48.194;11.546;2023-02-04T02:24:30;96991.34;;;5.50;100.00
29239;BME280;16267;48.194;11.546;2023-02-04T02:27:00;96995.81;;;5.46;100.00
29239;BME280;16267;48.194;11.546;2023-02-04T02:29:27;96994.78;;;5.51;100.00
29239;BME280;16267;48.194;11.546;2023-02-04T02:31:54;97002.59;;;5.44;100.00
29239;BME280;16267;48.194;11.546;2023-02-04T02:34:26;97004.50;;;5.43;100.00
29239;BME280;16267;48.194;11.546;2023-02-04T02:36:53;97009.25;;;5.37;100.00
29239;BME280;16267;48.194;11.546;2023-02-04T02:39:19;97011.16;;;5.37;100.00
29239;BME280;16267;48.194;11.546;2023-02-04T02:41:45;97010.59;;;5.44;100.00
29239;BME280;16267;48.194;11.546;2023-02-04T02:44:13;97006.03;;;5.44;100.00
29239;BME280;16267;48.194;11.546;2023-02-04T02:46:39;97000.69;;;5.44;100.00
29239;BME280;16267;48.194;11.546;2023-02-04T02:49:05;97000.69;;;5.44;100.00
29239;BME280;16267;48.194;11.546;2023-02-04T02:51:31;97005.25;;;5.44;99.53
29239;BME280;16267;48.194;11.546;2023-02-04T02:53:57;97015.72;;;5.36;99.48
29239;BME280;16267;48.194;11.546;2023-02-04T02:56:23;97010.13;;;5.42;100.00
29239;BME280;16267;48.194;11.546;2023-02-04T02:58:49;97020.47;;;5.43;100.00
29239;BME280;16267;48.194;11.546;2023-02-04T03:01:15;97021.56;;;5.42;99.34
29239;BME280;16267;48.194;11.546;2023-02-04T03:03:46;97026.03;;;5.38;98.35
29239;BME280;16267;48.194;11.546;2023-02-04T03:06:15;97017.34;;;5.41;99.23
29239;BME280;16267;48.194;11.546;2023-02-04T03:08:42;97018.03;;;5.38;98.47
29239;BME280;16267;48.194;11.546;2023-02-04T03:11:09;97020.34;;;5.40;99.18
29239;BME280;16267;48.194;11.546;2023-02-04T03:13:35;97024.38;;;5.33;97.55
29239;BME280;16267;48.194;11.546;2023-02-04T03:16:02;97026.28;;;5.33;98.74
29239;BME280;16267;48.194;11.546;2023-02-04T03:18:29;97037.25;;;5.31;97.70
29239;BME280;16267;48.194;11.546;2023-02-04T03:20:56;97026.94;;;5.30;98.96
29239;BME280;16267;48.194;11.546;2023-02-04T03:23:23;97024.97;;;5.27;97.54
29239;BME280;16267;48.194;11.546;2023-02-04T03:25:51;97033.72;;;5.27;97.73
29239;BME280;16267;48.194;11.546;2023-02-04T03:28:18;97035.41;;;5.20;97.27
29239;BME280;16267;48.194;11.546;2023-02-04T03:30:43;97044.94;;;5.21;98.18
29239;BME280;16267;48.194;11.546;2023-02-04T03:33:18;97053.28;;;5.19;97.93
29239;BME280;16267;48.194;11.546;2023-02-04T03:35:43;97049.84;;;5.19;97.24
29239;BME280;16267;48.194;11.546;2023-02-04T03:38:09;97064.69;;;5.20;97.42
29239;BME280;16267;48.194;11.546;2023-02-04T03:40:35;97068.47;;;5.19;97.64
29239;BME280;16267;48.194;11.546;2023-02-04T03:43:00;97069.94;;;5.16;97.13
29239;BME280;16267;48.194;11.546;2023-02-04T03:45:26;97066.81;;;5.14;97.63
29239;BME280;16267;48.194;11.546;2023-02-04T03:47:52;97077.69;;;5.09;96.55
29239;BME280;16267;48.194;11.546;2023-02-04T03:50:18;97080.81;;;5.11;98.35
29239;BME280;16267;48.194;11.546;2023-02-04T03:52:44;97086.03;;;5.07;97.77
29239;BME280;16267;48.194;11.546;2023-02-04T03:55:10;97096.69;;;5.07;97.53
29239;BME280;16267;48.194;11.546;2023-02-04T03:57:35;97109.84;;;5.04;96.02
29239;BME280;16267;48.194;11.546;2023-02-04T04:00:01;97111.75;;;5.03;95.53
29239;BME280;16267;48.194;11.546;2023-02-04T04:02:27;97112.97;;;5.06;96.62
29239;BME280;16267;48.194;11.546;2023-02-04T04:04:52;97124.72;;;5.05;96.09
29239;BME280;16267;48.194;11.546;2023-02-04T04:07:18;97117.09;;;4.91;95.16
29239;BME280;16267;48.194;11.546;2023-02-04T04:09:44;97120.41;;;5.00;95.73
29239;BME280;16267;48.194;11.546;2023-02-04T04:12:09;97127.63;;;5.00;95.00
29239;BME280;16267;48.194;11.546;2023-02-04T04:14:35;97123.75;;;4.97;94.49
29239;BME280;16267;48.194;11.546;2023-02-04T04:17:01;97128.84;;;5.02;95.24
29239;BME280;16267;48.194;11.546;2023-02-04T04:19:27;97129.25;;;5.04;95.31
29239;BME280;16267;48.194;11.546;2023-02-04T04:21:53;97138.34;;;5.03;94.53
29239;BME280;16267;48.194;11.546;2023-02-04T04:24:18;97135.16;;;4.98;92.52
29239;BME280;16267;48.194;11.546;2023-02-04T04:26:44;97133.25;;;4.98;92.62
29239;BME280;16267;48.194;11.546;2023-02-04T04:29:10;97125.28;;;4.98;92.40
29239;BME280;16267;48.194;11.546;2023-02-04T04:31:35;97127.84;;;4.95;92.04
29239;BME280;16267;48.194;11.546;2023-02-04T04:34:01;97130.19;;;4.84;89.90
29239;BME280;16267;48.194;11.546;2023-02-04T04:36:27;97137.50;;;4.87;91.07
29239;BME280;16267;48.194;11.546;2023-02-04T04:38:53;97139.16;;;4.79;90.92
29239;BME280;16267;48.194;11.546;2023-02-04T04:41:18;97141.03;;;4.79;91.54
29239;BME280;16267;48.194;11.546;2023-02-04T04:43:44;97151.13;;;4.73;90.54
29239;BME280;16267;48.194;11.546;2023-02-04T04:46:10;97148.59;;;4.64;89.08
29239;BME280;16267;48.194;11.546;2023-02-04T04:48:35;97150.47;;;4.64;90.12
29239;BME280;16267;48.194;11.546;2023-02-04T04:51:01;97162.00;;;4.56;89.44
29239;BME280;16267;48.194;11.546;2023-02-04T04:53:27;97154.78;;;4.56;90.45
29239;BME280;16267;48.194;11.546;2023-02-04T04:55:53;97156.66;;;4.56;90.14
29239;BME280;16267;48.194;11.546;2023-02-04T04:58:19;97162.09;;;4.47;89.49
29239;BME280;16267;48.194;11.546;2023-02-04T05:00:44;97172.38;;;4.48;90.76
29239;BME280;16267;48.194;11.546;2023-02-04T05:03:10;97170.72;;;4.44;90.10
29239;BME280;16267;48.194;11.546;2023-02-04T05:05:36;97170.72;;;4.44;90.76
29239;BME280;16267;48.194;11.546;2023-02-04T05:08:06;97164.97;;;4.42;90.60
29239;BME280;16267;48.194;11.546;2023-02-04T05:10:41;97178.72;;;4.44;91.18
29239;BME280;16267;48.194;11.546;2023-02-04T05:13:07;97185.56;;;4.45;90.61
29239;BME280;16267;48.194;11.546;2023-02-04T05:15:33;97182.03;;;4.41;89.86
29239;BME280;16267;48.194;11.546;2023-02-04T05:17:59;97192.66;;;4.41;90.50
29239;BME280;16267;48.194;11.546;2023-02-04T05:20:25;97191.53;;;4.42;90.56
29239;BME280;16267;48.194;11.546;2023-02-04T05:22:51;97196.53;;;4.43;90.78
29239;BME280;16267;48.194;11.546;2023-02-04T05:25:17;97198.75;;;4.41;89.82
29239;BME280;16267;48.194;11.546;2023-02-04T05:27:44;97205.50;;;4.39;89.76
29239;BME280;16267;48.194;11.546;2023-02-04T05:30:12;97209.25;;;4.38;89.57
29239;BME280;16267;48.194;11.546;2023-02-04T05:32:38;97204.38;;;4.40;89.97
29239;BME280;16267;48.194;11.546;2023-02-04T05:35:04;97202.50;;;4.40;90.11
29239;BME280;16267;48.194;11.546;2023-02-04T05:37:30;97202.94;;;4.42;90.00
29239;BME280;16267;48.194;11.546;2023-02-04T05:39:56;97211.28;;;4.41;89.08
29239;BME280;16267;48.194;11.546;2023-02-04T05:42:22;97207.50;;;4.42;88.99
29239;BME280;16267;48.194;11.546;2023-02-04T05:44:48;97209.25;;;4.38;87.76
29239;BME280;16267;48.194;11.546;2023-02-04T05:47:14;97219.25;;;4.41;88.79
29239;BME280;16267;48.194;11.546;2023-02-04T05:49:40;97226.00;;;4.38;87.39
29239;BME280;16267;48.194;11.546;2023-02-04T05:52:06;97226.41;;;4.40;87.66
29239;BME280;16267;48.194;11.546;2023-02-04T05:54:31;97239.84;;;4.44;88.38
29239;BME280;16267;48.194;11.546;2023-02-04T05:56:57;97244.41;;;4.43;87.80
29239;BME280;16267;48.194;11.546;2023-02-04T05:59:23;97249.38;;;4.45;87.67
29239;BME280;16267;48.194;11.546;2023-02-04T06:01:49;97253.16;;;4.44;86.90
29239;BME280;16267;48.194;11.546;2023-02-04T06:04:15;97269.53;;;4.46;87.69
29239;BME280;16267;48.194;11.546;2023-02-04T06:06:42;97275.28;;;4.48;87.88
29239;BME280;16267;48.194;11.546;2023-02-04T06:09:08;97269.97;;;4.48;88.31
29239;BME280;16267;48.194;11.546;2023-02-04T06:11:34;97285.28;;;4.51;88.12
29239;BME280;16267;48.194;11.546;2023-02-04T06:14:00;97283.72;;;4.50;88.33
29239;BME280;16267;48.194;11.546;2023-02-04T06:16:26;97278.72;;;4.48;88.23
29239;BME280;16267;48.194;11.546;2023-02-04T06:18:51;97284.38;;;4.47;87.92
29239;BME280;16267;48.194;11.546;2023-02-04T06:21:17;97281.63;;;4.43;87.95
29239;BME280;16267;48.194;11.546;2023-02-04T06:23:43;97285.16;;;4.47;89.11
29239;BME280;16267;48.194;11.546;2023-02-04T06:26:09;97290.47;;;4.47;88.67
29239;BME280;16267;48.194;11.546;2023-02-04T06:28:35;97297.34;;;4.48;88.79
29239;BME280;16267;48.194;11.546;2023-02-04T06:31:02;97295.47;;;4.49;88.10
29239;BME280;16267;48.194;11.546;2023-02-04T06:33:27;97303.31;;;4.45;88.57
29239;BME280;16267;48.194;11.546;2023-02-04T06:35:56;97307.19;;;4.48;89.05
29239;BME280;16267;48.194;11.546;2023-02-04T06:38:22;97304.44;;;4.44;89.46
29239;BME280;16267;48.194;11.546;2023-02-04T06:40:48;97307.41;;;4.43;89.48
29239;BME280;16267;48.194;11.546;2023-02-04T06:43:18;97312.16;;;4.37;89.19
29239;BME280;16267;48.194;11.546;2023-02-04T06:45:44;97314.69;;;4.34;89.33
29239;BME280;16267;48.194;11.546;2023-02-04T06:48:10;97308.41;;;4.38;89.38
29239;BME280;16267;48.194;11.546;2023-02-04T06:50:36;97306.63;;;4.42;89.36
29239;BME280;16267;48.194;11.546;2023-02-04T06:53:02;97308.25;;;4.35;88.91
29239;BME280;16267;48.194;11.546;2023-02-04T06:55:29;97314.88;;;4.29;88.72
29239;BME280;16267;48.194;11.546;2023-02-04T06:57:55;97316.13;;;4.31;89.71
29239;BME280;16267;48.194;11.546;2023-02-04T07:00:21;97316.13;;;4.31;89.70
29239;BME280;16267;48.194;11.546;2023-02-04T07:02:47;97320.19;;;4.29;89.07
29239;BME280;16267;48.194;11.546;2023-02-04T07:05:12;97322.19;;;4.32;90.02
29239;BME280;16267;48.194;11.546;2023-02-04T07:07:38;97323.88;;;4.36;90.60
29239;BME280;16267;48.194;11.546;2023-02-04T07:10:04;97333.09;;;4.39;89.87
29239;BME280;16267;48.194;11.546;2023-02-04T07:12:30;97329.31;;;4.40;89.01
29239;BME280;16267;48.194;11.546;2023-02-04T07:14:56;97333.88;;;4.39;89.03
29239;BME280;16267;48.194;11.546;2023-02-04T07:17:22;97340.41;;;4.42;88.62
29239;BME280;16267;48.194;11.546;2023-02-04T07:19:48;97348.84;;;4.44;88.62
29239;BME280;16267;48.194;11.546;2023-02-04T07:22:14;97351.81;;;4.42;88.03
29239;BME280;16267;48.194;11.546;2023-02-04T07:24:40;97359.59;;;4.47;89.00
29239;BME280;16267;48.194;11.546;2023-02-04T07:27:05;97369.34;;;4.43;87.30
29239;BME280;16267;48.194;11.546;2023-02-04T07:29:31;97362.16;;;4.44;87.13
29239;BME280;16267;48.194;11.546;2023-02-04T07:31:57;97371.22;;;4.43;88.24
29239;BME280;16267;48.194;11.546;2023-02-04T07:34:23;97369.66;;;4.42;87.02
29239;BME280;16267;48.194;11.546;2023-02-04T07:36:49;97373.81;;;4.31;86.98
29239;BME280;16267;48.194;11.546;2023-02-04T07:39:15;97383.50;;;4.35;87.89
29239;BME280;16267;48.194;11.546;2023-02-04T07:41:40;97383.50;;;4.35;87.97
29239;BME280;16267;48.194;11.546;2023-02-04T07:44:06;97395.00;;;4.39;87.15
29239;BME280;16267;48.194;11.546;2023-02-04T07:46:32;97392.81;;;4.41;87.02
29239;BME280;16267;48.194;11.546;2023-02-04T07:48:58;97392.34;;;4.39;86.71
29239;BME280;16267;48.194;11.546;2023-02-04T07:51:24;97395.53;;;4.33;85.55
29239;BME280;16267;48.194;11.546;2023-02-04T07:53:50;97401.69;;;4.45;87.06
29239;BME280;16267;48.194;11.546;2023-02-04T07:56:16;97405.13;;;4.46;86.29
29239;BME280;16267;48.194;11.546;2023-02-04T07:58:41;97405.13;;;4.46;85.97
29239;BME280;16267;48.194;11.546;2023-02-04T08:01:09;97408.13;;;4.44;86.15
29239;BME280;16267;48.194;11.546;2023-02-04T08:03:37;97407.91;;;4.50;86.22
29239;BME280;16267;48.194;11.546;2023-02-04T08:06:03;97409.16;;;4.52;86.23
29239;BME280;16267;48.194;11.546;2023-02-04T08:08:29;97411.63;;;4.57;86.50
29239;BME280;16267;48.194;11.546;2023-02-04T08:10:54;97406.63;;;4.56;86.46
29239;BME280;16267;48.194;11.546;2023-02-04T08:13:20;97407.56;;;4.51;84.85
29239;BME280;16267;48.194;11.546;2023-02-04T08:15:46;97418.38;;;4.55;84.92
29239;BME280;16267;48.194;11.546;2023-02-04T08:18:12;97409.06;;;4.61;85.72
29239;BME280;16267;48.194;11.546;2023-02-04T08:20:38;97420.03;;;4.59;84.52
29239;BME280;16267;48.194;11.546;2023-02-04T08:23:04;97424.38;;;4.64;85.42
29239;BME280;16267;48.194;11.546;2023-02-04T08:25:30;97426.69;;;4.65;84.62
29239;BME280;16267;48.194;11.546;2023-02-04T08:27:55;97425.63;;;4.66;84.19
29239;BME280;16267;48.194;11.546;2023-02-04T08:30:21;97429.03;;;4.67;85.20
29239;BME280;16267;48.194;11.546;2023-02-04T08:32:47;97435.13;;;4.67;85.04
29239;BME280;16267;48.194;11.546;2023-02-04T08:35:13;97440.47;;;4.67;84.77
29239;BME280;16267;48.194;11.546;2023-02-04T08:37:38;97444.09;;;4.63;84.10
29239;BME280;16267;48.194;11.546;2023-02-04T08:40:05;97447.66;;;4.67;84.74
29239;BME280;16267;48.194;11.546;2023-02-04T08:42:31;97450.19;;;4.63;82.91
29239;BME280;16267;48.194;11.546;2023-02-04T08:44:59;97447.47;;;4.72;83.81
29239;BME280;16267;48.194;11.546;2023-02-04T08:47:25;97459.03;;;5.09;82.29
29239;BME280;16267;48.194;11.546;2023-02-04T08:49:51;97450.59;;;5.41;80.50
29239;BME280;16267;48.194;11.546;2023-02-04T08:52:17;97452.50;;;5.52;80.11
29239;BME280;16267;48.194;11.546;2023-02-04T08:54:43;97456.41;;;5.79;80.98
29239;BME280;16267;48.194;11.546;2023-02-04T08:57:09;97462.41;;;6.01;81.91
29239;BME280;16267;48.194;11.546;2023-02-04T08:59:35;97451.97;;;6.20;78.83
29239;BME280;16267;48.194;11.546;2023-02-04T09:02:01;97465.09;;;6.13;78.81
29239;BME280;16267;48.194;11.546;2023-02-04T09:04:27;97468.19;;;6.03;77.54
29239;BME280;16267;48.194;11.546;2023-02-04T09:06:54;97465.72;;;5.86;75.99
29239;BME280;16267;48.194;11.546;2023-02-04T09:09:20;97477.94;;;5.87;75.88
29239;BME280;16267;48.194;11.546;2023-02-04T09:11:46;97485.06;;;5.82;76.48
29239;BME280;16267;48.194;11.546;2023-02-04T09:14:12;97485.06;;;5.82;76.14
29239;BME280;16267;48.194;11.546;2023-02-04T09:16:38;97485.94;;;5.87;77.55
29239;BME280;16267;48.194;11.546;2023-02-04T09:19:04;97486.38;;;5.89;76.39
29239;BME280;16267;48.194;11.546;2023-02-04T09:21:31;97485.63;;;5.88;76.19
29239;BME280;16267;48.194;11.546;2023-02-04T09:23:57;97493.59;;;5.88;75.57
29239;BME280;16267;48.194;11.546;2023-02-04T09:26:22;97488.09;;;5.93;77.32
29239;BME280;16267;48.194;11.546;2023-02-04T09:28:48;97487.06;;;5.98;77.82
29239;BME280;16267;48.194;11.546;2023-02-04T09:31:14;97482.41;;;5.95;76.41
29239;BME280;16267;48.194;11.546;2023-02-04T09:33:41;97486.19;;;5.94;75.64
29239;BME280;16267;48.194;11.546;2023-02-04T09:36:09;97493.53;;;5.97;76.31
29239;BME280;16267;48.194;11.546;2023-02-04T09:38:35;97502.97;;;5.94;75.61
29239;BME280;16267;48.194;11.546;2023-02-04T09:41:05;97501.84;;;5.95;76.16
29239;BME280;16267;48.194;11.546;2023-02-04T09:43:37;97505.63;;;5.94;76.15
29239;BME280;16267;48.194;11.546;2023-02-04T09:46:04;97515.81;;;5.92;76.36
29239;BME280;16267;48.194;11.546;2023-02-04T09:48:30;97518.19;;;5.94;76.64
29239;BME280;16267;48.194;11.546;2023-02-04T09:51:06;97516.91;;;5.91;75.75
29239;BME280;16267;48.194;11.546;2023-02-04T09:53:33;97520.06;;;5.93;76.84
29239;BME280;16267;48.194;11.546;2023-02-04T09:56:00;97524.56;;;5.93;77.12
29239;BME280;16267;48.194;11.546;2023-02-04T09:58:32;97520.69;;;5.90;76.55
29239;BME280;16267;48.194;11.546;2023-02-04T10:01:08;97521.13;;;5.92;76.19
29239;BME280;16267;48.194;11.546;2023-02-04T10:03:38;97518.81;;;5.91;76.62
29239;BME280;16267;48.194;11.546;2023-02-04T10:06:15;97524.56;;;5.80;75.90
29239;BME280;16267;48.194;11.546;2023-02-04T10:08:43;97528.66;;;5.78;78.15
29239;BME280;16267;48.194;11.546;2023-02-04T10:11:20;97534.09;;;5.81;78.12
29239;BME280;16267;48.194;11.546;2023-02-04T10:13:49;97541.00;;;5.82;77.28
29239;BME280;16267;48.194;11.546;2023-02-04T10:16:32;97544.09;;;5.85;77.31
29239;BME280;16267;48.194;11.546;2023-02-04T10:19:01;97552.88;;;5.85;77.47
29239;BME280;16267;48.194;11.546;2023-02-04T10:21:31;97560.09;;;5.85;76.85
29239;BME280;16267;48.194;11.546;2023-02-04T10:24:01;97557.31;;;5.81;76.44
29239;BME280;16267;48.194;11.546;2023-02-04T10:26:30;97559.53;;;5.79;76.20
29239;BME280;16267;48.194;11.546;2023-02-04T10:29:16;97551.41;;;5.75;76.50
29239;BME280;16267;48.194;11.546;2023-02-04T10:31:45;97557.09;;;5.74;76.70
29239;BME280;16267;48.194;11.546;2023-02-04T10:34:36;97552.06;;;5.72;77.09
29239;BME280;16267;48.194;11.546;2023-02-04T10:37:20;97547.53;;;5.73;77.21
29239;BME280;16267;48.194;11.546;2023-02-04T10:39:46;97547.97;;;5.75;76.99
29239;BME280;16267;48.194;11.546;2023-02-04T10:42:26;97549.09;;;5.74;76.88
29239;BME280;16267;48.194;11.546;2023-02-04T10:44:53;97553.00;;;5.76;77.03
29239;BME280;16267;48.194;11.546;2023-02-04T10:47:27;97551.88;;;5.77;76.92
29239;BME280;16267;48.194;11.546;2023-02-04T10:50:14;97546.66;;;5.81;77.16
29239;BME280;16267;48.194;11.546;2023-02-04T10:52:45;97554.53;;;5.90;77.53
29239;BME280;16267;48.194;11.546;2023-02-04T10:55:15;97550.94;;;5.94;77.94
29239;BME280;16267;48.194;11.546;2023-02-04T10:57:45;97547.59;;;5.97;77.14
29239;BME280;16267;48.194;11.546;2023-02-04T11:00:24;97550.25;;;5.97;75.85
29239;BME280;16267;48.194;11.546;2023-02-04T11:03:06;97544.47;;;5.95;74.70
29239;BME280;16267;48.194;11.546;2023-02-04T11:05:34;97554.72;;;5.93;74.43
29239;BME280;16267;48.194;11.546;2023-02-04T11:08:01;97560.66;;;5.90;74.46
29239;BME280;16267;48.194;11.546;2023-02-04T11:10:31;97561.97;;;5.84;73.88
29239;BME280;16267;48.194;11.546;2023-02-04T11:15:48;97560.19;;;5.76;74.71
29239;BME280;16267;48.194;11.546;2023-02-04T11:20:53;97552.28;;;5.67;75.62
29239;BME280;16267;48.194;11.546;2023-02-04T11:26:17;97549.50;;;5.64;75.86
29239;BME280;16267;48.194;11.546;2023-02-04T11:29:06;97545.28;;;5.63;76.24
29239;BME280;16267;48.194;11.546;2023-02-04T11:37:05;97551.31;;;5.72;76.64
29239;BME280;16267;48.194;11.546;2023-02-04T11:40:11;97542.09;;;5.81;76.35
29239;BME280;16267;48.194;11.546;2023-02-04T11:42:41;97540.28;;;6.07;76.12
29239;BME280;16267;48.194;11.546;2023-02-04T11:47:50;97539.50;;;6.55;76.88
29239;BME280;16267;48.194;11.546;2023-02-04T11:50:28;97544.34;;;6.78;74.35
29239;BME280;16267;48.194;11.546;2023-02-04T11:52:57;97545.47;;;6.64;72.47
29239;BME280;16267;48.194;11.546;2023-02-04T11:55:24;97540.72;;;6.58;71.55
29239;BME280;16267;48.194;11.546;2023-02-04T11:57:54;97543.06;;;6.47;70.78
29239;BME280;16267;48.194;11.546;2023-02-04T12:00:30;97538.06;;;6.45;71.22
29239;BME280;16267;48.194;11.546;2023-02-04T12:03:04;97536.84;;;6.43;71.69
29239;BME280;16267;48.194;11.546;2023-02-04T12:05:42;97538.72;;;6.42;72.01
29239;BME280;16267;48.194;11.546;2023-02-04T12:08:25;97526.50;;;6.41;72.03
29239;BME280;16267;48.194;11.546;2023-02-04T12:11:08;97527.97;;;6.39;72.02
29239;BME280;16267;48.194;11.546;2023-02-04T12:13:50;97528.53;;;6.32;71.32
29239;BME280;16267;48.194;11.546;2023-02-04T12:16:17;97530.06;;;6.33;71.95
29239;BME280;16267;48.194;11.546;2023-02-04T12:18:43;97530.38;;;6.32;72.91
29239;BME280;16267;48.194;11.546;2023-02-04T12:21:09;97531.06;;;6.29;71.90
29239;BME280;16267;48.194;11.546;2023-02-04T12:23:39;97533.63;;;6.25;71.60
29239;BME280;16267;48.194;11.546;2023-02-04T12:26:08;97538.50;;;6.23;72.24
29239;BME280;16267;48.194;11.546;2023-02-04T12:28:34;97530.72;;;6.18;71.71
29239;BME280;16267;48.194;11.546;2023-02-04T12:31:00;97534.84;;;6.15;71.40
29239;BME280;16267;48.194;11.546;2023-02-04T12:33:25;97533.63;;;6.13;72.08
29239;BME280;16267;48.194;11.546;2023-02-04T12:35:51;97532.06;;;6.12;72.32
29239;BME280;16267;48.194;11.546;2023-02-04T12:38:18;97533.94;;;6.11;71.81
29239;BME280;16267;48.194;11.546;2023-02-04T12:40:44;97538.28;;;6.16;71.40
29239;BME280;16267;48.194;11.546;2023-02-04T12:43:10;97535.75;;;6.19;71.83
29239;BME280;16267;48.194;11.546;2023-02-04T12:45:36;97533.06;;;6.19;71.63
29239;BME280;16267;48.194;11.546;2023-02-04T12:48:03;97537.63;;;6.19;71.41
29239;BME280;16267;48.194;11.546;2023-02-04T12:50:29;97532.28;;;6.19;70.90
29239;BME280;16267;48.194;11.546;2023-02-04T12:52:57;97534.19;;;6.18;71.18
29239;BME280;16267;48.194;11.546;2023-02-04T12:55:26;97530.41;;;6.19;71.25
29239;BME280;16267;48.194;11.546;2023-02-04T12:57:53;97524.97;;;6.16;70.84
29239;BME280;16267;48.194;11.546;2023-02-04T13:00:21;97526.41;;;6.13;70.43
29239;BME280;16267;48.194;11.546;2023-02-04T13:02:47;97528.63;;;6.11;71.19
29239;BME280;16267;48.194;11.546;2023-02-04T13:05:14;97527.06;;;6.10;71.33
29239;BME280;16267;48.194;11.546;2023-02-04T13:07:41;97526.63;;;6.08;70.50
29239;BME280;16267;48.194;11.546;2023-02-04T13:10:09;97522.72;;;6.06;71.40
29239;BME280;16267;48.194;11.546;2023-02-04T13:12:36;97522.72;;;6.06;71.72
29239;BME280;16267;48.194;11.546;2023-02-04T13:15:02;97521.97;;;6.05;71.70
29239;BME280;16267;48.194;11.546;2023-02-04T13:17:28;97533.28;;;6.02;70.50